sensor_id;sensor_type;location;lat;lon;timestamp;pressure;altitude;pressure_sealevel;temperature;humidity
18500;BME280;9379;52.134;11.576;2023-03-13T00:01:36;99970.88;;;8.82;100.00
18500;BME280;9379;52.134;11.576;2023-03-13T00:04:04;99974.19;;;8.64;100.00
18500;BME280;9379;52.134;11.576;2023-03-13T00:06:33;99967.63;;;8.88;100.00
18500;BME280;9379;52.134;11.576;2023-03-13T00:09:02;99953.44;;;8.60;100.00
18500;BME280;9379;52.134;11.576;2023-03-13T00:11:29;99950.06;;;8.87;99.85
18500;BME280;9379;52.134;11.576;2023-03-13T00:13:58;99963.47;;;8.95;99.17
18500;BME280;9379;52.134;11.576;2023-03-13T00:16:26;99958.03;;;8.77;100.00
18500;BME280;9379;52.134;11.576;2023-03-13T00:18:54;99956.44;;;9.13;98.74
18500;BME280;9379;52.134;11.576;2023-03-13T00:21:23;99952.72;;;8.58;100.00
18500;BME280;9379;52.134;11.576;2023-03-13T00:23:50;99932.50;;;8.86;99.95
18500;BME280;9379;52.134;11.576;2023-03-13T00:26:20;99924.78;;;9.21;97.87
18500;BME280;9379;52.134;11.576;2023-03-13T00:28:48;99937.38;;;9.00;99.31
18500;BME280;9379;52.134;11.576;2023-03-13T00:31:16;99938.50;;;8.97;99.79
18500;BME280;9379;52.134;11.576;2023-03-13T00:33:45;99944.59;;;9.27;97.67
18500;BME280;9379;52.134;11.576;2023-03-13T00:36:14;99941.38;;;9.23;97.77
18500;BME280;9379;52.134;11.576;2023-03-13T00:38:41;99948.28;;;9.53;96.28
18500;BME280;9379;52.134;11.576;2023-03-13T00:41:09;99943.78;;;9.17;97.91
18500;BME280;9379;52.134;11.576;2023-03-13T00:43:38;99941.44;;;8.85;100.00
18500;BME280;9379;52.134;11.576;2023-03-13T00:46:06;99935.56;;;8.91;99.82
18500;BME280;9379;52.134;11.576;2023-03-13T00:51:08;99938.63;;;8.86;99.22
18500;BME280;9379;52.134;11.576;2023-03-13T00:53:35;99900.84;;;8.84;99.60
18500;BME280;9379;52.134;11.576;2023-03-13T00:56:04;99913.97;;;8.66;100.00
18500;BME280;9379;52.134;11.576;2023-03-13T00:58:33;99921.31;;;9.01;99.33
18500;BME280;9379;52.134;11.576;2023-03-13T01:01:08;99923.31;;;9.46;97.38
18500;BME280;9379;52.134;11.576;2023-03-13T01:03:36;99914.34;;;8.91;99.75
18500;BME280;9379;52.134;11.576;2023-03-13T01:06:05;99926.03;;;9.27;98.62
18500;BME280;9379;52.134;11.576;2023-03-13T01:08:32;99914.44;;;9.28;98.00
18500;BME280;9379;52.134;11.576;2023-03-13T01:10:59;99915.28;;;9.28;98.32
18500;BME280;9379;52.134;11.576;2023-03-13T01:13:27;99910.22;;;9.35;97.71
18500;BME280;9379;52.134;11.576;2023-03-13T01:15:54;99914.50;;;9.46;97.15
18500;BME280;9379;52.134;11.576;2023-03-13T01:18:22;99917.72;;;9.49;97.50
18500;BME280;9379;52.134;11.576;2023-03-13T01:20:49;99915.63;;;9.53;96.70
18500;BME280;9379;52.134;11.576;2023-03-13T01:23:16;99908.56;;;9.24;98.85
18500;BME280;9379;52.134;11.576;2023-03-13T01:25:42;99902.13;;;9.36;98.50
18500;BME280;9379;52.134;11.576;2023-03-13T01:28:09;99891.09;;;8.94;99.73
18500;BME280;9379;52.134;11.576;2023-03-13T01:30:36;99897.09;;;9.33;98.82
18500;BME280;9379;52.134;11.576;2023-03-13T01:33:03;99891.28;;;9.30;98.73
18500;BME280;9379;52.134;11.576;2023-03-13T01:35:31;99869.94;;;9.22;98.27
18500;BME280;9379;52.134;11.576;2023-03-13T01:37:58;99879.72;;;9.21;99.66
18500;BME280;9379;52.134;11.576;2023-03-13T01:40:25;99877.50;;;9.17;99.80
18500;BME280;9379;52.134;11.576;2023-03-13T01:42:52;99866.66;;;9.38;98.79
18500;BME280;9379;52.134;11.576;2023-03-13T01:45:49;99864.78;;;9.57;97.97
18500;BME280;9379;52.134;11.576;2023-03-13T01:48:16;99856.13;;;9.55;97.80
18500;BME280;9379;52.134;11.576;2023-03-13T01:50:45;99857.28;;;9.16;99.62
18500;BME280;9379;52.134;11.576;2023-03-13T01:53:12;99834.34;;;9.24;98.99
18500;BME280;9379;52.134;11.576;2023-03-13T01:55:39;99852.38;;;9.21;100.00
18500;BME280;9379;52.134;11.576;2023-03-13T01:58:05;99851.91;;;9.25;99.75
18500;BME280;9379;52.134;11.576;2023-03-13T02:00:34;99846.91;;;9.22;100.00
18500;BME280;9379;52.134;11.576;2023-03-13T02:03:05;99834.34;;;9.24;99.74
18500;BME280;9379;52.134;11.576;2023-03-13T02:05:34;99855.78;;;9.03;100.00
18500;BME280;9379;52.134;11.576;2023-03-13T02:08:07;99837.50;;;9.38;99.59
18500;BME280;9379;52.134;11.576;2023-03-13T02:10:38;99838.88;;;9.42;99.24
18500;BME280;9379;52.134;11.576;2023-03-13T02:13:10;99841.13;;;8.99;100.00
18500;BME280;9379;52.134;11.576;2023-03-13T02:15:42;99827.19;;;9.34;99.62
18500;BME280;9379;52.134;11.576;2023-03-13T02:18:09;99822.88;;;9.33;100.00
18500;BME280;9379;52.134;11.576;2023-03-13T02:20:37;99826.66;;;9.31;100.00
18500;BME280;9379;52.134;11.576;2023-03-13T02:23:11;99811.94;;;9.09;100.00
18500;BME280;9379;52.134;11.576;2023-03-13T02:25:43;99814.69;;;9.54;98.95
18500;BME280;9379;52.134;11.576;2023-03-13T02:28:13;99810.78;;;9.21;99.98
18500;BME280;9379;52.134;11.576;2023-03-13T02:30:42;99812.59;;;9.21;100.00
18500;BME280;9379;52.134;11.576;2023-03-13T02:33:10;99810.59;;;8.95;100.00
18500;BME280;9379;52.134;11.576;2023-03-13T02:35:38;99807.31;;;9.11;100.00
18500;BME280;9379;52.134;11.576;2023-03-13T02:38:07;99792.53;;;9.18;100.00
18500;BME280;9379;52.134;11.576;2023-03-13T02:40:37;99782.72;;;9.28;100.00
18500;BME280;9379;52.134;11.576;2023-03-13T02:43:09;99777.38;;;9.38;99.36
18500;BME280;9379;52.134;11.576;2023-03-13T02:45:37;99770.78;;;9.42;98.74
18500;BME280;9379;52.134;11.576;2023-03-13T02:48:04;99761.00;;;9.15;100.00
18500;BME280;9379;52.134;11.576;2023-03-13T02:50:31;99765.22;;;9.35;100.00
18500;BME280;9379;52.134;11.576;2023-03-13T02:53:01;99761.19;;;9.31;99.42
18500;BME280;9379;52.134;11.576;2023-03-13T02:55:31;99762.22;;;9.48;98.74
18500;BME280;9379;52.134;11.576;2023-03-13T02:58:00;99748.03;;;9.12;100.00
18500;BME280;9379;52.134;11.576;2023-03-13T03:00:28;99744.47;;;9.49;98.77
18500;BME280;9379;52.134;11.576;2023-03-13T03:02:55;99755.00;;;9.41;99.81
18500;BME280;9379;52.134;11.576;2023-03-13T03:05:22;99744.25;;;9.42;99.80
18500;BME280;9379;52.134;11.576;2023-03-13T03:07:49;99724.28;;;9.20;100.00
18500;BME280;9379;52.134;11.576;2023-03-13T03:10:17;99732.75;;;9.69;98.78
18500;BME280;9379;52.134;11.576;2023-03-13T03:12:44;99725.63;;;9.24;100.00
18500;BME280;9379;52.134;11.576;2023-03-13T03:15:11;99726.69;;;9.59;100.00
18500;BME280;9379;52.134;11.576;2023-03-13T03:17:39;99726.53;;;9.43;100.00
18500;BME280;9379;52.134;11.576;2023-03-13T03:20:07;99726.72;;;9.31;100.00
18500;BME280;9379;52.134;11.576;2023-03-13T03:22:36;99706.25;;;9.24;100.00
18500;BME280;9379;52.134;11.576;2023-03-13T03:25:06;99707.56;;;9.38;100.00
18500;BME280;9379;52.134;11.576;2023-03-13T03:27:33;99705.41;;;9.51;100.00
18500;BME280;9379;52.134;11.576;2023-03-13T03:30:01;99715.22;;;9.58;100.00
18500;BME280;9379;52.134;11.576;2023-03-13T03:32:27;99713.94;;;9.45;100.00
18500;BME280;9379;52.134;11.576;2023-03-13T03:35:01;99723.25;;;9.49;100.00
18500;BME280;9379;52.134;11.576;2023-03-13T03:37:28;99713.63;;;9.48;100.00
18500;BME280;9379;52.134;11.576;2023-03-13T03:39:55;99707.59;;;9.55;100.00
18500;BME280;9379;52.134;11.576;2023-03-13T03:42:22;99698.69;;;9.01;100.00
18500;BME280;9379;52.134;11.576;2023-03-13T03:44:49;99706.59;;;9.11;100.00
18500;BME280;9379;52.134;11.576;2023-03-13T03:47:16;99687.16;;;9.20;100.00
18500;BME280;9379;52.134;11.576;2023-03-13T03:49:43;99692.28;;;9.04;100.00
18500;BME280;9379;52.134;11.576;2023-03-13T03:52:11;99691.78;;;9.18;100.00
18500;BME280;9379;52.134;11.576;2023-03-13T03:54:37;99686.81;;;9.69;100.00
18500;BME280;9379;52.134;11.576;2023-03-13T03:57:04;99675.16;;;9.44;100.00
18500;BME280;9379;52.134;11.576;2023-03-13T03:59:31;99670.00;;;9.42;100.00
18500;BME280;9379;52.134;11.576;2023-03-13T04:01:58;99649.91;;;9.22;100.00
18500;BME280;9379;52.134;11.576;2023-03-13T04:04:25;99661.38;;;9.13;100.00
18500;BME280;9379;52.134;11.576;2023-03-13T04:06:52;99654.84;;;9.17;100.00
18500;BME280;9379;52.134;11.576;2023-03-13T04:09:21;99656.34;;;9.19;100.00
18500;BME280;9379;52.134;11.576;2023-03-13T04:11:48;99626.34;;;9.19;100.00
18500;BME280;9379;52.134;11.576;2023-03-13T04:14:15;99646.88;;;9.17;100.00
18500;BME280;9379;52.134;11.576;2023-03-13T04:16:42;99637.31;;;9.24;100.00
18500;BME280;9379;52.134;11.576;2023-03-13T04:19:09;99618.72;;;9.16;100.00
18500;BME280;9379;52.134;11.576;2023-03-13T04:21:36;99630.34;;;9.05;100.00
18500;BME280;9379;52.134;11.576;2023-03-13T04:24:04;99605.66;;;9.04;100.00
18500;BME280;9379;52.134;11.576;2023-03-13T04:26:32;99614.22;;;9.16;100.00
18500;BME280;9379;52.134;11.576;2023-03-13T04:29:00;99581.16;;;8.75;100.00
18500;BME280;9379;52.134;11.576;2023-03-13T04:31:27;99577.22;;;8.79;100.00
18500;BME280;9379;52.134;11.576;2023-03-13T04:33:54;99581.63;;;8.70;100.00
18500;BME280;9379;52.134;11.576;2023-03-13T04:36:21;99557.88;;;8.96;100.00
18500;BME280;9379;52.134;11.576;2023-03-13T04:38:48;99578.66;;;8.73;100.00
18500;BME280;9379;52.134;11.576;2023-03-13T04:41:15;99565.44;;;8.91;100.00
18500;BME280;9379;52.134;11.576;2023-03-13T04:43:43;99554.63;;;9.20;100.00
18500;BME280;9379;52.134;11.576;2023-03-13T04:46:10;99530.53;;;8.78;100.00
18500;BME280;9379;52.134;11.576;2023-03-13T04:48:37;99536.91;;;9.03;100.00
18500;BME280;9379;52.134;11.576;2023-03-13T04:51:04;99525.47;;;8.85;100.00
18500;BME280;9379;52.134;11.576;2023-03-13T04:53:31;99527.19;;;8.76;100.00
18500;BME280;9379;52.134;11.576;2023-03-13T04:55:58;99517.59;;;8.93;100.00
18500;BME280;9379;52.134;11.576;2023-03-13T04:58:25;99493.97;;;8.64;100.00
18500;BME280;9379;52.134;11.576;2023-03-13T05:00:53;99482.16;;;8.58;100.00
18500;BME280;9379;52.134;11.576;2023-03-13T05:03:21;99486.03;;;8.64;100.00
18500;BME280;9379;52.134;11.576;2023-03-13T05:05:49;99470.59;;;8.77;100.00
18500;BME280;9379;52.134;11.576;2023-03-13T05:08:16;99490.03;;;8.86;100.00
18500;BME280;9379;52.134;11.576;2023-03-13T05:10:43;99470.97;;;8.64;100.00
18500;BME280;9379;52.134;11.576;2023-03-13T05:13:10;99456.50;;;8.76;100.00
18500;BME280;9379;52.134;11.576;2023-03-13T05:15:36;99447.34;;;8.89;100.00
18500;BME280;9379;52.134;11.576;2023-03-13T05:18:05;99445.25;;;8.92;100.00
18500;BME280;9379;52.134;11.576;2023-03-13T05:20:32;99450.59;;;8.65;100.00
18500;BME280;9379;52.134;11.576;2023-03-13T05:22:59;99439.63;;;8.77;100.00
18500;BME280;9379;52.134;11.576;2023-03-13T05:25:26;99445.75;;;8.96;100.00
18500;BME280;9379;52.134;11.576;2023-03-13T05:27:53;99422.38;;;8.73;100.00
18500;BME280;9379;52.134;11.576;2023-03-13T05:30:20;99426.47;;;8.86;100.00
18500;BME280;9379;52.134;11.576;2023-03-13T05:32:47;99421.91;;;8.78;100.00
18500;BME280;9379;52.134;11.576;2023-03-13T05:35:16;99429.81;;;8.70;100.00
18500;BME280;9379;52.134;11.576;2023-03-13T05:37:43;99422.31;;;8.65;100.00
18500;BME280;9379;52.134;11.576;2023-03-13T05:40:11;99413.97;;;8.96;100.00
18500;BME280;9379;52.134;11.576;2023-03-13T05:42:39;99408.81;;;8.76;100.00
18500;BME280;9379;52.134;11.576;2023-03-13T05:45:07;99407.16;;;8.93;100.00
18500;BME280;9379;52.134;11.576;2023-03-13T05:47:34;99404.59;;;9.10;100.00
18500;BME280;9379;52.134;11.576;2023-03-13T05:50:01;99416.13;;;9.00;100.00
18500;BME280;9379;52.134;11.576;2023-03-13T05:52:29;99399.06;;;8.95;100.00
18500;BME280;9379;52.134;11.576;2023-03-13T05:54:56;99407.16;;;9.19;100.00
18500;BME280;9379;52.134;11.576;2023-03-13T05:57:23;99406.16;;;8.94;100.00
18500;BME280;9379;52.134;11.576;2023-03-13T05:59:50;99401.22;;;8.99;100.00
18500;BME280;9379;52.134;11.576;2023-03-13T06:02:17;99399.88;;;8.95;100.00
18500;BME280;9379;52.134;11.576;2023-03-13T06:04:45;99391.47;;;9.00;100.00
18500;BME280;9379;52.134;11.576;2023-03-13T06:07:12;99398.22;;;8.94;100.00
18500;BME280;9379;52.134;11.576;2023-03-13T06:09:40;99387.38;;;9.05;100.00
18500;BME280;9379;52.134;11.576;2023-03-13T06:12:08;99363.78;;;9.20;100.00
18500;BME280;9379;52.134;11.576;2023-03-13T06:14:35;99359.38;;;9.03;100.00
18500;BME280;9379;52.134;11.576;2023-03-13T06:17:04;99367.41;;;9.19;100.00
18500;BME280;9379;52.134;11.576;2023-03-13T06:19:31;99359.31;;;8.95;100.00
18500;BME280;9379;52.134;11.576;2023-03-13T06:21:58;99372.22;;;9.24;100.00
18500;BME280;9379;52.134;11.576;2023-03-13T06:24:25;99378.91;;;9.36;100.00
18500;BME280;9379;52.134;11.576;2023-03-13T06:26:53;99368.72;;;9.15;100.00
18500;BME280;9379;52.134;11.576;2023-03-13T06:29:22;99371.81;;;9.36;100.00
18500;BME280;9379;52.134;11.576;2023-03-13T06:31:49;99375.06;;;9.56;100.00
18500;BME280;9379;52.134;11.576;2023-03-13T06:34:16;99355.88;;;9.28;100.00
18500;BME280;9379;52.134;11.576;2023-03-13T06:36:47;99343.16;;;9.06;100.00
18500;BME280;9379;52.134;11.576;2023-03-13T06:39:14;99362.78;;;9.21;100.00
18500;BME280;9379;52.134;11.576;2023-03-13T06:41:41;99355.28;;;9.43;100.00
18500;BME280;9379;52.134;11.576;2023-03-13T06:44:09;99321.69;;;9.17;100.00
18500;BME280;9379;52.134;11.576;2023-03-13T06:46:36;99333.81;;;9.62;100.00
18500;BME280;9379;52.134;11.576;2023-03-13T06:49:03;99340.97;;;9.35;100.00
18500;BME280;9379;52.134;11.576;2023-03-13T06:51:30;99310.91;;;9.19;100.00
18500;BME280;9379;52.134;11.576;2023-03-13T06:53:58;99310.69;;;9.38;100.00
18500;BME280;9379;52.134;11.576;2023-03-13T06:56:24;99318.75;;;9.71;100.00
18500;BME280;9379;52.134;11.576;2023-03-13T06:58:51;99296.44;;;9.39;100.00
18500;BME280;9379;52.134;11.576;2023-03-13T07:01:20;99323.22;;;9.62;100.00
18500;BME280;9379;52.134;11.576;2023-03-13T07:03:47;99319.19;;;9.50;100.00
18500;BME280;9379;52.134;11.576;2023-03-13T07:06:15;99306.81;;;9.67;100.00
18500;BME280;9379;52.134;11.576;2023-03-13T07:08:43;99299.56;;;9.93;100.00
18500;BME280;9379;52.134;11.576;2023-03-13T07:11:14;99306.47;;;9.61;100.00
18500;BME280;9379;52.134;11.576;2023-03-13T07:13:41;99316.78;;;9.81;100.00
18500;BME280;9379;52.134;11.576;2023-03-13T07:16:09;99271.44;;;9.50;100.00
18500;BME280;9379;52.134;11.576;2023-03-13T07:18:38;99286.38;;;9.51;100.00
18500;BME280;9379;52.134;11.576;2023-03-13T07:21:09;99310.53;;;9.48;100.00
18500;BME280;9379;52.134;11.576;2023-03-13T07:23:37;99306.66;;;9.76;100.00
18500;BME280;9379;52.134;11.576;2023-03-13T07:26:06;99277.88;;;9.39;100.00
18500;BME280;9379;52.134;11.576;2023-03-13T07:28:34;99288.09;;;9.76;100.00
18500;BME280;9379;52.134;11.576;2023-03-13T07:31:05;99295.91;;;9.94;100.00
18500;BME280;9379;52.134;11.576;2023-03-13T07:33:33;99283.50;;;10.03;100.00
18500;BME280;9379;52.134;11.576;2023-03-13T07:36:02;99296.75;;;9.86;100.00
18500;BME280;9379;52.134;11.576;2023-03-13T07:38:29;99288.13;;;10.01;100.00
18500;BME280;9379;52.134;11.576;2023-03-13T07:40:56;99280.88;;;10.19;100.00
18500;BME280;9379;52.134;11.576;2023-03-13T07:43:24;99297.78;;;10.10;100.00
18500;BME280;9379;52.134;11.576;2023-03-13T07:45:54;99294.84;;;10.54;100.00
18500;BME280;9379;52.134;11.576;2023-03-13T07:48:23;99287.69;;;10.38;100.00
18500;BME280;9379;52.134;11.576;2023-03-13T07:50:50;99274.25;;;10.23;100.00
18500;BME280;9379;52.134;11.576;2023-03-13T07:53:18;99259.31;;;10.22;100.00
18500;BME280;9379;52.134;11.576;2023-03-13T07:55:56;99259.47;;;10.29;100.00
18500;BME280;9379;52.134;11.576;2023-03-13T07:58:25;99266.28;;;10.39;100.00
18500;BME280;9379;52.134;11.576;2023-03-13T08:00:53;99258.97;;;10.49;100.00
18500;BME280;9379;52.134;11.576;2023-03-13T08:03:22;99251.00;;;10.58;100.00
18500;BME280;9379;52.134;11.576;2023-03-13T08:05:57;99241.84;;;10.52;100.00
18500;BME280;9379;52.134;11.576;2023-03-13T08:08:28;99253.34;;;10.44;100.00
18500;BME280;9379;52.134;11.576;2023-03-13T08:10:59;99236.53;;;10.52;100.00
18500;BME280;9379;52.134;11.576;2023-03-13T08:13:26;99238.88;;;10.55;100.00
18500;BME280;9379;52.134;11.576;2023-03-13T08:16:01;99238.41;;;11.07;100.00
18500;BME280;9379;52.134;11.576;2023-03-13T08:18:28;99229.47;;;11.00;100.00
18500;BME280;9379;52.134;11.576;2023-03-13T08:21:00;99217.22;;;10.91;100.00
18500;BME280;9379;52.134;11.576;2023-03-13T08:23:34;99210.44;;;10.72;100.00
18500;BME280;9379;52.134;11.576;2023-03-13T08:26:06;99200.88;;;11.02;100.00
18500;BME280;9379;52.134;11.576;2023-03-13T08:28:34;99208.22;;;11.00;100.00
18500;BME280;9379;52.134;11.576;2023-03-13T08:31:08;99212.81;;;11.14;100.00
18500;BME280;9379;52.134;11.576;2023-03-13T08:33:36;99225.66;;;11.33;100.00
18500;BME280;9379;52.134;11.576;2023-03-13T08:36:14;99210.44;;;11.19;100.00
18500;BME280;9379;52.134;11.576;2023-03-13T08:38:48;99217.41;;;11.20;100.00
18500;BME280;9379;52.134;11.576;2023-03-13T08:41:18;99212.16;;;11.43;100.00
18500;BME280;9379;52.134;11.576;2023-03-13T08:43:54;99223.53;;;11.29;100.00
18500;BME280;9379;52.134;11.576;2023-03-13T08:46:24;99206.84;;;11.04;100.00
18500;BME280;9379;52.134;11.576;2023-03-13T08:48:53;99223.19;;;11.32;100.00
18500;BME280;9379;52.134;11.576;2023-03-13T08:51:23;99227.34;;;11.57;100.00
18500;BME280;9379;52.134;11.576;2023-03-13T08:53:54;99187.53;;;11.49;100.00
18500;BME280;9379;52.134;11.576;2023-03-13T08:56:23;99205.84;;;11.67;100.00
18500;BME280;9379;52.134;11.576;2023-03-13T08:58:51;99217.91;;;11.78;100.00
18500;BME280;9379;52.134;11.576;2023-03-13T09:01:20;99220.28;;;11.73;100.00
18500;BME280;9379;52.134;11.576;2023-03-13T09:03:49;99202.81;;;12.01;100.00
18500;BME280;9379;52.134;11.576;2023-03-13T09:06:22;99218.72;;;12.47;100.00
18500;BME280;9379;52.134;11.576;2023-03-13T09:08:49;99220.13;;;12.57;100.00
18500;BME280;9379;52.134;11.576;2023-03-13T09:11:19;99200.13;;;12.24;100.00
18500;BME280;9379;52.134;11.576;2023-03-13T09:13:48;99232.22;;;12.45;100.00
18500;BME280;9379;52.134;11.576;2023-03-13T09:16:17;99214.47;;;12.38;100.00
18500;BME280;9379;52.134;11.576;2023-03-13T09:18:45;99215.97;;;12.40;100.00
18500;BME280;9379;52.134;11.576;2023-03-13T09:21:16;99197.56;;;12.31;100.00
18500;BME280;9379;52.134;11.576;2023-03-13T09:23:44;99189.22;;;12.34;100.00
18500;BME280;9379;52.134;11.576;2023-03-13T09:26:12;99217.00;;;12.69;100.00
18500;BME280;9379;52.134;11.576;2023-03-13T09:28:43;99218.84;;;12.68;100.00
18500;BME280;9379;52.134;11.576;2023-03-13T09:31:11;99220.69;;;12.68;100.00
18500;BME280;9379;52.134;11.576;2023-03-13T09:33:39;99229.53;;;12.98;100.00
18500;BME280;9379;52.134;11.576;2023-03-13T09:36:07;99208.38;;;12.67;100.00
18500;BME280;9379;52.134;11.576;2023-03-13T09:38:35;99219.34;;;12.49;100.00
18500;BME280;9379;52.134;11.576;2023-03-13T09:41:22;99208.47;;;12.88;100.00
18500;BME280;9379;52.134;11.576;2023-03-13T09:43:55;99200.84;;;12.85;100.00
18500;BME280;9379;52.134;11.576;2023-03-13T09:46:32;99202.03;;;12.82;100.00
18500;BME280;9379;52.134;11.576;2023-03-13T09:49:04;99205.69;;;12.96;100.00
18500;BME280;9379;52.134;11.576;2023-03-13T09:51:36;99198.28;;;13.42;100.00
18500;BME280;9379;52.134;11.576;2023-03-13T09:54:07;99169.56;;;12.79;100.00
18500;BME280;9379;52.134;11.576;2023-03-13T09:56:38;99198.59;;;13.18;100.00
18500;BME280;9379;52.134;11.576;2023-03-13T09:59:15;99195.19;;;13.39;100.00
18500;BME280;9379;52.134;11.576;2023-03-13T10:01:45;99185.56;;;13.81;100.00
18500;BME280;9379;52.134;11.576;2023-03-13T10:04:28;99194.66;;;13.86;100.00
18500;BME280;9379;52.134;11.576;2023-03-13T10:06:56;99187.00;;;14.47;100.00
18500;BME280;9379;52.134;11.576;2023-03-13T10:09:27;99186.22;;;14.32;100.00
18500;BME280;9379;52.134;11.576;2023-03-13T10:12:02;99162.56;;;14.57;100.00
18500;BME280;9379;52.134;11.576;2023-03-13T10:14:38;99187.38;;;14.44;100.00
18500;BME280;9379;52.134;11.576;2023-03-13T10:17:17;99187.38;;;14.23;100.00
18500;BME280;9379;52.134;11.576;2023-03-13T10:19:47;99181.69;;;14.54;100.00
18500;BME280;9379;52.134;11.576;2023-03-13T10:22:21;99182.69;;;14.53;100.00
18500;BME280;9379;52.134;11.576;2023-03-13T10:24:51;99179.63;;;14.56;100.00
18500;BME280;9379;52.134;11.576;2023-03-13T10:27:20;99176.22;;;14.69;100.00
18500;BME280;9379;52.134;11.576;2023-03-13T10:29:48;99163.56;;;14.84;99.73
18500;BME280;9379;52.134;11.576;2023-03-13T10:32:16;99160.69;;;14.92;100.00
18500;BME280;9379;52.134;11.576;2023-03-13T10:34:49;99152.44;;;15.28;98.39
18500;BME280;9379;52.134;11.576;2023-03-13T10:37:22;99167.44;;;15.23;97.58
18500;BME280;9379;52.134;11.576;2023-03-13T10:39:49;99154.69;;;15.38;97.34
18500;BME280;9379;52.134;11.576;2023-03-13T10:42:23;99158.06;;;15.53;97.64
18500;BME280;9379;52.134;11.576;2023-03-13T10:44:57;99162.81;;;14.97;99.12
18500;BME280;9379;52.134;11.576;2023-03-13T10:47:25;99152.25;;;15.50;96.95
18500;BME280;9379;52.134;11.576;2023-03-13T10:49:55;99148.34;;;14.84;100.00
18500;BME280;9379;52.134;11.576;2023-03-13T10:52:34;99139.69;;;15.43;97.84
18500;BME280;9379;52.134;11.576;2023-03-13T10:55:20;99114.28;;;15.13;98.31
18500;BME280;9379;52.134;11.576;2023-03-13T10:57:56;99149.63;;;15.02;100.00
18500;BME280;9379;52.134;11.576;2023-03-13T11:00:29;99144.00;;;15.31;98.35
18500;BME280;9379;52.134;11.576;2023-03-13T11:02:58;99148.41;;;14.98;100.00
18500;BME280;9379;52.134;11.576;2023-03-13T11:05:31;99139.63;;;15.24;99.26
18500;BME280;9379;52.134;11.576;2023-03-13T11:07:58;99140.63;;;15.09;99.58
18500;BME280;9379;52.134;11.576;2023-03-13T11:10:36;99149.69;;;15.15;97.79
18500;BME280;9379;52.134;11.576;2023-03-13T11:13:03;99149.53;;;15.23;98.81
18500;BME280;9379;52.134;11.576;2023-03-13T11:15:34;99158.13;;;15.05;99.77
18500;BME280;9379;52.134;11.576;2023-03-13T11:18:12;99158.38;;;15.17;99.50
18500;BME280;9379;52.134;11.576;2023-03-13T11:20:43;99141.41;;;15.03;99.29
18500;BME280;9379;52.134;11.576;2023-03-13T11:23:18;99154.94;;;15.43;97.46
18500;BME280;9379;52.134;11.576;2023-03-13T11:25:52;99137.72;;;15.04;100.00
18500;BME280;9379;52.134;11.576;2023-03-13T11:28:28;99141.50;;;15.23;98.63
18500;BME280;9379;52.134;11.576;2023-03-13T11:31:12;99143.34;;;15.23;98.87
18500;BME280;9379;52.134;11.576;2023-03-13T11:33:46;99149.34;;;15.31;97.26
18500;BME280;9379;52.134;11.576;2023-03-13T11:36:30;99148.78;;;15.56;96.03
18500;BME280;9379;52.134;11.576;2023-03-13T11:39:05;99132.50;;;15.44;96.04
18500;BME280;9379;52.134;11.576;2023-03-13T11:41:47;99148.00;;;15.62;95.79
18500;BME280;9379;52.134;11.576;2023-03-13T11:44:27;99131.09;;;15.61;95.47
18500;BME280;9379;52.134;11.576;2023-03-13T11:47:19;99144.72;;;15.73;94.62
18500;BME280;9379;52.134;11.576;2023-03-13T11:49:59;99144.25;;;15.56;95.03
18500;BME280;9379;52.134;11.576;2023-03-13T11:59:31;99113.00;;;15.63;94.26
18500;BME280;9379;52.134;11.576;2023-03-13T12:02:12;99123.09;;;15.94;94.77
18500;BME280;9379;52.134;11.576;2023-03-13T12:04:47;99116.72;;;15.82;95.15
18500;BME280;9379;52.134;11.576;2023-03-13T12:07:25;99120.84;;;15.91;95.46
18500;BME280;9379;52.134;11.576;2023-03-13T12:09:57;99138.13;;;16.48;93.41
18500;BME280;9379;52.134;11.576;2023-03-13T12:15:16;99113.41;;;16.20;95.77
18500;BME280;9379;52.134;11.576;2023-03-13T12:18:08;99106.38;;;16.45;93.09
18500;BME280;9379;52.134;11.576;2023-03-13T12:20:43;99088.59;;;16.51;93.35
18500;BME280;9379;52.134;11.576;2023-03-13T12:23:17;99080.78;;;16.43;93.85
18500;BME280;9379;52.134;11.576;2023-03-13T12:29:12;99058.94;;;16.39;93.77
18500;BME280;9379;52.134;11.576;2023-03-13T12:31:44;99075.72;;;15.88;96.43
18500;BME280;9379;52.134;11.576;2023-03-13T12:34:19;99066.00;;;15.94;95.99
18500;BME280;9379;52.134;11.576;2023-03-13T12:36:50;99059.00;;;15.60;97.25
18500;BME280;9379;52.134;11.576;2023-03-13T12:39:25;99063.94;;;15.96;95.09
18500;BME280;9379;52.134;11.576;2023-03-13T12:46:01;99066.63;;;15.69;96.60
18500;BME280;9379;52.134;11.576;2023-03-13T12:48:54;99056.94;;;15.62;97.04
18500;BME280;9379;52.134;11.576;2023-03-13T12:51:40;99056.31;;;15.93;95.12
18500;BME280;9379;52.134;11.576;2023-03-13T12:54:35;99059.63;;;15.68;96.75
18500;BME280;9379;52.134;11.576;2023-03-13T12:57:19;99046.63;;;15.52;97.42
18500;BME280;9379;52.134;11.576;2023-03-13T12:59:51;99044.13;;;16.17;94.23
18500;BME280;9379;52.134;11.576;2023-03-13T13:02:22;99031.38;;;15.86;95.28
18500;BME280;9379;52.134;11.576;2023-03-13T13:04:51;99016.78;;;15.75;94.74
18500;BME280;9379;52.134;11.576;2023-03-13T13:07:26;99017.75;;;16.14;94.02
18500;BME280;9379;52.134;11.576;2023-03-13T13:10:15;99013.28;;;15.88;94.92
18500;BME280;9379;52.134;11.576;2023-03-13T13:12:44;99012.25;;;15.89;94.61
18500;BME280;9379;52.134;11.576;2023-03-13T13:15:17;99009.72;;;16.14;93.38
18500;BME280;9379;52.134;11.576;2023-03-13T13:17:55;99010.19;;;15.71;94.86
18500;BME280;9379;52.134;11.576;2023-03-13T13:20:27;99011.00;;;15.78;95.31
18500;BME280;9379;52.134;11.576;2023-03-13T13:23:22;98997.31;;;16.19;93.13
18500;BME280;9379;52.134;11.576;2023-03-13T13:25:51;98995.59;;;16.45;92.78
18500;BME280;9379;52.134;11.576;2023-03-13T13:28:24;98997.19;;;16.52;93.49
18500;BME280;9379;52.134;11.576;2023-03-13T13:30:54;98995.06;;;16.23;93.19
18500;BME280;9379;52.134;11.576;2023-03-13T13:33:37;98976.69;;;16.20;93.51
18500;BME280;9379;52.134;11.576;2023-03-13T13:36:28;98997.19;;;16.59;92.19